sensor_id;sensor_type;location;lat;lon;timestamp;P1;durP1;ratioP1;P2;durP2;ratioP2
77984;SDS011;67177;47.240;-1.546;2023-09-08T00:00:12;4.50;;;2.00;;
77984;SDS011;67177;47.240;-1.546;2023-09-08T00:02:38;4.47;;;2.08;;
77984;SDS011;67177;47.240;-1.546;2023-09-08T00:05:03;4.73;;;2.30;;
77984;SDS011;67177;47.240;-1.546;2023-09-08T00:07:29;5.00;;;2.30;;
77984;SDS011;67177;47.240;-1.546;2023-09-08T00:09:55;5.07;;;2.30;;
77984;SDS011;67177;47.240;-1.546;2023-09-08T00:12:21;4.90;;;2.50;;
77984;SDS011;67177;47.240;-1.546;2023-09-08T00:14:46;4.73;;;2.43;;
77984;SDS011;67177;47.240;-1.546;2023-09-08T00:17:15;4.75;;;2.40;;
77984;SDS011;67177;47.240;-1.546;2023-09-08T00:19:41;4.80;;;2.40;;
77984;SDS011;67177;47.240;-1.546;2023-09-08T00:22:06;5.03;;;2.50;;
77984;SDS011;67177;47.240;-1.546;2023-09-08T00:24:32;4.80;;;2.33;;
77984;SDS011;67177;47.240;-1.546;2023-09-08T00:26:58;4.85;;;2.40;;
77984;SDS011;67177;47.240;-1.546;2023-09-08T00:29:24;5.13;;;2.35;;
77984;SDS011;67177;47.240;-1.546;2023-09-08T00:31:49;5.20;;;2.70;;
77984;SDS011;67177;47.240;-1.546;2023-09-08T00:34:15;5.60;;;2.67;;
77984;SDS011;67177;47.240;-1.546;2023-09-08T00:36:40;4.80;;;2.40;;
77984;SDS011;67177;47.240;-1.546;2023-09-08T00:39:06;5.10;;;2.70;;
77984;SDS011;67177;47.240;-1.546;2023-09-08T00:41:32;4.80;;;2.25;;
77984;SDS011;67177;47.240;-1.546;2023-09-08T00:43:58;4.93;;;2.53;;
77984;SDS011;67177;47.240;-1.546;2023-09-08T00:46:24;5.00;;;2.45;;
77984;SDS011;67177;47.240;-1.546;2023-09-08T00:48:52;4.90;;;2.45;;
77984;SDS011;67177;47.240;-1.546;2023-09-08T00:51:18;4.30;;;2.00;;
77984;SDS011;67177;47.240;-1.546;2023-09-08T00:53:45;5.20;;;2.20;;
77984;SDS011;67177;47.240;-1.546;2023-09-08T00:56:10;4.57;;;1.90;;
77984;SDS011;67177;47.240;-1.546;2023-09-08T00:58:37;4.20;;;1.77;;
77984;SDS011;67177;47.240;-1.546;2023-09-08T01:01:02;4.25;;;1.80;;
77984;SDS011;67177;47.240;-1.546;2023-09-08T01:03:30;4.00;;;1.70;;
77984;SDS011;67177;47.240;-1.546;2023-09-08T01:05:56;4.20;;;1.80;;
77984;SDS011;67177;47.240;-1.546;2023-09-08T01:08:22;4.40;;;1.63;;
77984;SDS011;67177;47.240;-1.546;2023-09-08T01:10:48;4.00;;;1.67;;
77984;SDS011;67177;47.240;-1.546;2023-09-08T01:13:14;4.17;;;1.60;;
77984;SDS011;67177;47.240;-1.546;2023-09-08T01:15:40;4.25;;;1.60;;
77984;SDS011;67177;47.240;-1.546;2023-09-08T01:18:05;4.17;;;1.80;;
77984;SDS011;67177;47.240;-1.546;2023-09-08T01:20:35;4.27;;;1.73;;
77984;SDS011;67177;47.240;-1.546;2023-09-08T01:23:24;4.40;;;2.08;;
77984;SDS011;67177;47.240;-1.546;2023-09-08T01:25:59;4.43;;;1.83;;
77984;SDS011;67177;47.240;-1.546;2023-09-08T01:28:35;3.92;;;1.50;;
77984;SDS011;67177;47.240;-1.546;2023-09-08T01:31:02;4.07;;;1.60;;
77984;SDS011;67177;47.240;-1.546;2023-09-08T01:33:29;3.80;;;1.50;;
77984;SDS011;67177;47.240;-1.546;2023-09-08T01:35:55;4.00;;;1.60;;
77984;SDS011;67177;47.240;-1.546;2023-09-08T01:38:21;4.22;;;1.90;;
77984;SDS011;67177;47.240;-1.546;2023-09-08T01:40:47;4.63;;;2.20;;
77984;SDS011;67177;47.240;-1.546;2023-09-08T01:43:13;4.23;;;2.00;;
77984;SDS011;67177;47.240;-1.546;2023-09-08T01:45:38;4.17;;;1.80;;
77984;SDS011;67177;47.240;-1.546;2023-09-08T01:48:04;4.47;;;1.80;;
77984;SDS011;67177;47.240;-1.546;2023-09-08T01:50:30;4.18;;;1.80;;
77984;SDS011;67177;47.240;-1.546;2023-09-08T01:52:56;4.10;;;1.60;;
77984;SDS011;67177;47.240;-1.546;2023-09-08T01:55:21;4.07;;;1.63;;
77984;SDS011;67177;47.240;-1.546;2023-09-08T01:57:47;4.35;;;1.73;;
77984;SDS011;67177;47.240;-1.546;2023-09-08T02:00:13;4.53;;;1.83;;
77984;SDS011;67177;47.240;-1.546;2023-09-08T02:02:39;3.95;;;1.65;;
77984;SDS011;67177;47.240;-1.546;2023-09-08T02:05:05;3.97;;;1.65;;
77984;SDS011;67177;47.240;-1.546;2023-09-08T02:07:31;4.20;;;1.60;;
77984;SDS011;67177;47.240;-1.546;2023-09-08T02:09:57;3.90;;;1.45;;
77984;SDS011;67177;47.240;-1.546;2023-09-08T02:12:22;3.73;;;1.40;;
77984;SDS011;67177;47.240;-1.546;2023-09-08T02:14:48;3.60;;;1.40;;
77984;SDS011;67177;47.240;-1.546;2023-09-08T02:17:14;4.07;;;1.53;;
77984;SDS011;67177;47.240;-1.546;2023-09-08T02:19:39;3.88;;;1.50;;
77984;SDS011;67177;47.240;-1.546;2023-09-08T02:22:05;5.13;;;1.60;;
77984;SDS011;67177;47.240;-1.546;2023-09-08T02:24:31;4.15;;;1.70;;
77984;SDS011;67177;47.240;-1.546;2023-09-08T02:26:56;4.47;;;2.20;;
77984;SDS011;67177;47.240;-1.546;2023-09-08T02:29:22;4.67;;;2.27;;
77984;SDS011;67177;47.240;-1.546;2023-09-08T02:31:48;4.78;;;2.20;;
77984;SDS011;67177;47.240;-1.546;2023-09-08T02:34:14;4.88;;;2.28;;
77984;SDS011;67177;47.240;-1.546;2023-09-08T02:36:39;4.90;;;2.13;;
77984;SDS011;67177;47.240;-1.546;2023-09-08T02:39:05;4.70;;;2.15;;
77984;SDS011;67177;47.240;-1.546;2023-09-08T02:41:32;4.87;;;2.00;;
77984;SDS011;67177;47.240;-1.546;2023-09-08T02:43:57;4.45;;;2.00;;
77984;SDS011;67177;47.240;-1.546;2023-09-08T02:46:23;4.90;;;1.97;;
77984;SDS011;67177;47.240;-1.546;2023-09-08T02:48:49;4.28;;;1.80;;
77984;SDS011;67177;47.240;-1.546;2023-09-08T02:51:14;4.50;;;2.00;;
77984;SDS011;67177;47.240;-1.546;2023-09-08T02:53:40;4.60;;;2.20;;
77984;SDS011;67177;47.240;-1.546;2023-09-08T02:56:06;4.20;;;1.90;;
77984;SDS011;67177;47.240;-1.546;2023-09-08T02:58:32;4.47;;;1.98;;
77984;SDS011;67177;47.240;-1.546;2023-09-08T03:01:09;4.70;;;2.30;;
77984;SDS011;67177;47.240;-1.546;2023-09-08T03:03:47;5.43;;;2.40;;
77984;SDS011;67177;47.240;-1.546;2023-09-08T03:06:14;4.95;;;2.58;;
77984;SDS011;67177;47.240;-1.546;2023-09-08T03:08:40;5.35;;;2.67;;
77984;SDS011;67177;47.240;-1.546;2023-09-08T03:11:07;5.33;;;2.93;;
77984;SDS011;67177;47.240;-1.546;2023-09-08T03:13:33;5.53;;;2.88;;
77984;SDS011;67177;47.240;-1.546;2023-09-08T03:16:05;5.35;;;2.50;;
77984;SDS011;67177;47.240;-1.546;2023-09-08T03:18:35;4.93;;;2.50;;
77984;SDS011;67177;47.240;-1.546;2023-09-08T03:21:02;5.07;;;2.53;;
77984;SDS011;67177;47.240;-1.546;2023-09-08T03:23:35;4.70;;;2.43;;
77984;SDS011;67177;47.240;-1.546;2023-09-08T03:26:02;4.65;;;2.40;;
77984;SDS011;67177;47.240;-1.546;2023-09-08T03:28:27;4.60;;;2.20;;
77984;SDS011;67177;47.240;-1.546;2023-09-08T03:30:53;4.90;;;2.30;;
77984;SDS011;67177;47.240;-1.546;2023-09-08T03:33:18;4.70;;;2.30;;
77984;SDS011;67177;47.240;-1.546;2023-09-08T03:35:44;5.10;;;2.30;;
77984;SDS011;67177;47.240;-1.546;2023-09-08T03:38:10;4.90;;;2.30;;
77984;SDS011;67177;47.240;-1.546;2023-09-08T03:40:35;4.57;;;2.03;;
77984;SDS011;67177;47.240;-1.546;2023-09-08T03:43:01;4.00;;;1.83;;
77984;SDS011;67177;47.240;-1.546;2023-09-08T03:45:27;4.68;;;2.20;;
77984;SDS011;67177;47.240;-1.546;2023-09-08T03:47:52;4.53;;;2.20;;
77984;SDS011;67177;47.240;-1.546;2023-09-08T03:50:18;4.53;;;2.20;;
77984;SDS011;67177;47.240;-1.546;2023-09-08T03:52:44;4.63;;;2.10;;
77984;SDS011;67177;47.240;-1.546;2023-09-08T03:55:09;4.50;;;2.17;;
77984;SDS011;67177;47.240;-1.546;2023-09-08T03:57:36;4.60;;;2.10;;
77984;SDS011;67177;47.240;-1.546;2023-09-08T04:00:01;4.47;;;2.10;;
77984;SDS011;67177;47.240;-1.546;2023-09-08T04:02:30;4.40;;;1.67;;
77984;SDS011;67177;47.240;-1.546;2023-09-08T04:04:55;4.35;;;1.95;;
77984;SDS011;67177;47.240;-1.546;2023-09-08T04:07:21;4.97;;;2.23;;
77984;SDS011;67177;47.240;-1.546;2023-09-08T04:09:47;4.60;;;2.08;;
77984;SDS011;67177;47.240;-1.546;2023-09-08T04:12:12;4.60;;;2.10;;
77984;SDS011;67177;47.240;-1.546;2023-09-08T04:14:38;4.47;;;1.80;;
77984;SDS011;67177;47.240;-1.546;2023-09-08T04:17:03;4.40;;;2.03;;
77984;SDS011;67177;47.240;-1.546;2023-09-08T04:19:29;4.30;;;1.80;;
77984;SDS011;67177;47.240;-1.546;2023-09-08T04:21:55;4.32;;;1.98;;
77984;SDS011;67177;47.240;-1.546;2023-09-08T04:24:20;4.90;;;2.50;;
77984;SDS011;67177;47.240;-1.546;2023-09-08T04:26:46;5.60;;;2.67;;
77984;SDS011;67177;47.240;-1.546;2023-09-08T04:29:11;5.07;;;2.45;;
77984;SDS011;67177;47.240;-1.546;2023-09-08T04:31:37;4.80;;;2.50;;
77984;SDS011;67177;47.240;-1.546;2023-09-08T04:34:03;4.70;;;2.30;;
77984;SDS011;67177;47.240;-1.546;2023-09-08T04:36:28;5.53;;;2.37;;
77984;SDS011;67177;47.240;-1.546;2023-09-08T04:38:55;4.45;;;2.13;;
77984;SDS011;67177;47.240;-1.546;2023-09-08T04:41:21;4.60;;;2.00;;
77984;SDS011;67177;47.240;-1.546;2023-09-08T04:43:47;4.30;;;2.00;;
77984;SDS011;67177;47.240;-1.546;2023-09-08T04:46:12;4.40;;;1.80;;
77984;SDS011;67177;47.240;-1.546;2023-09-08T04:48:38;4.70;;;1.97;;
77984;SDS011;67177;47.240;-1.546;2023-09-08T04:51:04;4.63;;;2.17;;
77984;SDS011;67177;47.240;-1.546;2023-09-08T04:53:30;4.70;;;2.33;;
77984;SDS011;67177;47.240;-1.546;2023-09-08T04:55:55;4.65;;;2.10;;
77984;SDS011;67177;47.240;-1.546;2023-09-08T04:58:21;4.45;;;1.90;;
77984;SDS011;67177;47.240;-1.546;2023-09-08T05:00:47;4.70;;;2.23;;
77984;SDS011;67177;47.240;-1.546;2023-09-08T05:03:12;3.95;;;1.80;;
77984;SDS011;67177;47.240;-1.546;2023-09-08T05:05:38;4.70;;;2.30;;
77984;SDS011;67177;47.240;-1.546;2023-09-08T05:08:04;4.80;;;2.30;;
77984;SDS011;67177;47.240;-1.546;2023-09-08T05:10:30;5.00;;;2.50;;
77984;SDS011;67177;47.240;-1.546;2023-09-08T05:12:55;4.30;;;2.10;;
77984;SDS011;67177;47.240;-1.546;2023-09-08T05:15:21;4.40;;;2.10;;
77984;SDS011;67177;47.240;-1.546;2023-09-08T05:17:47;4.40;;;2.10;;
77984;SDS011;67177;47.240;-1.546;2023-09-08T05:20:13;4.43;;;2.00;;
77984;SDS011;67177;47.240;-1.546;2023-09-08T05:22:38;4.20;;;1.80;;
77984;SDS011;67177;47.240;-1.546;2023-09-08T05:25:04;4.10;;;1.80;;
77984;SDS011;67177;47.240;-1.546;2023-09-08T05:27:30;4.10;;;1.90;;
77984;SDS011;67177;47.240;-1.546;2023-09-08T05:29:56;4.25;;;1.55;;
77984;SDS011;67177;47.240;-1.546;2023-09-08T05:32:22;3.90;;;1.70;;
77984;SDS011;67177;47.240;-1.546;2023-09-08T05:34:48;4.00;;;1.60;;
77984;SDS011;67177;47.240;-1.546;2023-09-08T05:37:14;4.07;;;1.67;;
77984;SDS011;67177;47.240;-1.546;2023-09-08T05:39:39;4.50;;;2.10;;
77984;SDS011;67177;47.240;-1.546;2023-09-08T05:42:06;4.60;;;2.22;;
77984;SDS011;67177;47.240;-1.546;2023-09-08T05:44:31;5.03;;;2.20;;
77984;SDS011;67177;47.240;-1.546;2023-09-08T05:46:57;4.35;;;1.92;;
77984;SDS011;67177;47.240;-1.546;2023-09-08T05:49:23;4.32;;;2.10;;
77984;SDS011;67177;47.240;-1.546;2023-09-08T05:51:48;4.47;;;2.10;;
77984;SDS011;67177;47.240;-1.546;2023-09-08T05:54:14;4.50;;;2.10;;
77984;SDS011;67177;47.240;-1.546;2023-09-08T05:56:40;5.13;;;2.80;;
77984;SDS011;67177;47.240;-1.546;2023-09-08T05:59:06;5.70;;;3.22;;
77984;SDS011;67177;47.240;-1.546;2023-09-08T06:01:31;5.70;;;3.30;;
77984;SDS011;67177;47.240;-1.546;2023-09-08T06:03:57;6.35;;;3.90;;
77984;SDS011;67177;47.240;-1.546;2023-09-08T06:06:23;5.68;;;3.55;;
77984;SDS011;67177;47.240;-1.546;2023-09-08T06:08:50;6.13;;;3.50;;
77984;SDS011;67177;47.240;-1.546;2023-09-08T06:11:16;6.22;;;3.50;;
77984;SDS011;67177;47.240;-1.546;2023-09-08T06:13:41;5.28;;;3.00;;
77984;SDS011;67177;47.240;-1.546;2023-09-08T06:16:07;5.60;;;3.13;;
77984;SDS011;67177;47.240;-1.546;2023-09-08T06:18:33;6.10;;;3.10;;
77984;SDS011;67177;47.240;-1.546;2023-09-08T06:21:05;5.72;;;3.30;;
77984;SDS011;67177;47.240;-1.546;2023-09-08T06:23:32;5.33;;;3.03;;
77984;SDS011;67177;47.240;-1.546;2023-09-08T06:25:58;5.13;;;2.70;;
77984;SDS011;67177;47.240;-1.546;2023-09-08T06:28:25;5.35;;;3.00;;
77984;SDS011;67177;47.240;-1.546;2023-09-08T06:30:51;4.70;;;2.47;;
77984;SDS011;67177;47.240;-1.546;2023-09-08T06:33:17;4.40;;;2.07;;
77984;SDS011;67177;47.240;-1.546;2023-09-08T06:35:43;4.78;;;2.15;;
77984;SDS011;67177;47.240;-1.546;2023-09-08T06:38:09;5.03;;;2.42;;
77984;SDS011;67177;47.240;-1.546;2023-09-08T06:40:35;4.97;;;2.67;;
77984;SDS011;67177;47.240;-1.546;2023-09-08T06:43:01;6.20;;;2.97;;
77984;SDS011;67177;47.240;-1.546;2023-09-08T06:45:28;6.80;;;3.65;;
77984;SDS011;67177;47.240;-1.546;2023-09-08T06:47:54;7.30;;;3.80;;
77984;SDS011;67177;47.240;-1.546;2023-09-08T06:50:23;6.40;;;3.80;;
77984;SDS011;67177;47.240;-1.546;2023-09-08T06:52:49;6.25;;;3.88;;
77984;SDS011;67177;47.240;-1.546;2023-09-08T06:55:15;6.00;;;3.50;;
77984;SDS011;67177;47.240;-1.546;2023-09-08T06:57:42;5.40;;;3.15;;
77984;SDS011;67177;47.240;-1.546;2023-09-08T07:00:08;5.15;;;2.97;;
77984;SDS011;67177;47.240;-1.546;2023-09-08T07:02:36;5.32;;;2.85;;
77984;SDS011;67177;47.240;-1.546;2023-09-08T07:05:02;5.40;;;2.90;;
77984;SDS011;67177;47.240;-1.546;2023-09-08T07:07:32;6.30;;;2.80;;
77984;SDS011;67177;47.240;-1.546;2023-09-08T07:10:05;4.88;;;2.60;;
77984;SDS011;67177;47.240;-1.546;2023-09-08T07:12:31;5.13;;;2.75;;
77984;SDS011;67177;47.240;-1.546;2023-09-08T07:14:57;5.03;;;2.55;;
77984;SDS011;67177;47.240;-1.546;2023-09-08T07:17:24;5.07;;;2.70;;
77984;SDS011;67177;47.240;-1.546;2023-09-08T07:19:50;4.95;;;2.58;;
77984;SDS011;67177;47.240;-1.546;2023-09-08T07:22:16;5.15;;;2.65;;
77984;SDS011;67177;47.240;-1.546;2023-09-08T07:24:42;5.10;;;2.45;;
77984;SDS011;67177;47.240;-1.546;2023-09-08T07:27:09;5.40;;;2.50;;
77984;SDS011;67177;47.240;-1.546;2023-09-08T07:29:35;5.00;;;2.50;;
77984;SDS011;67177;47.240;-1.546;2023-09-08T07:32:00;4.67;;;2.30;;
77984;SDS011;67177;47.240;-1.546;2023-09-08T07:34:26;4.90;;;2.20;;
77984;SDS011;67177;47.240;-1.546;2023-09-08T07:36:52;4.53;;;1.97;;
77984;SDS011;67177;47.240;-1.546;2023-09-08T07:39:17;4.30;;;2.00;;
77984;SDS011;67177;47.240;-1.546;2023-09-08T07:41:43;4.90;;;2.10;;
77984;SDS011;67177;47.240;-1.546;2023-09-08T07:44:08;4.27;;;1.90;;
77984;SDS011;67177;47.240;-1.546;2023-09-08T07:46:35;4.85;;;2.10;;
77984;SDS011;67177;47.240;-1.546;2023-09-08T07:49:00;4.03;;;1.83;;
77984;SDS011;67177;47.240;-1.546;2023-09-08T07:51:26;4.13;;;1.87;;
77984;SDS011;67177;47.240;-1.546;2023-09-08T07:53:53;4.65;;;1.92;;
77984;SDS011;67177;47.240;-1.546;2023-09-08T07:56:18;4.10;;;1.70;;
77984;SDS011;67177;47.240;-1.546;2023-09-08T07:58:44;3.93;;;1.60;;
77984;SDS011;67177;47.240;-1.546;2023-09-08T08:01:10;4.10;;;1.83;;
77984;SDS011;67177;47.240;-1.546;2023-09-08T08:03:38;4.20;;;2.10;;
77984;SDS011;67177;47.240;-1.546;2023-09-08T08:06:03;4.68;;;2.10;;
77984;SDS011;67177;47.240;-1.546;2023-09-08T08:08:30;5.43;;;2.40;;
77984;SDS011;67177;47.240;-1.546;2023-09-08T08:10:56;4.90;;;2.20;;
77984;SDS011;67177;47.240;-1.546;2023-09-08T08:13:22;5.10;;;2.40;;
77984;SDS011;67177;47.240;-1.546;2023-09-08T08:15:48;4.50;;;2.20;;
77984;SDS011;67177;47.240;-1.546;2023-09-08T08:18:14;4.13;;;1.90;;
77984;SDS011;67177;47.240;-1.546;2023-09-08T08:20:40;4.50;;;1.80;;
77984;SDS011;67177;47.240;-1.546;2023-09-08T08:23:06;4.28;;;1.90;;
77984;SDS011;67177;47.240;-1.546;2023-09-08T08:25:32;3.97;;;1.70;;
77984;SDS011;67177;47.240;-1.546;2023-09-08T08:27:58;4.28;;;1.90;;
77984;SDS011;67177;47.240;-1.546;2023-09-08T08:30:27;4.45;;;1.83;;
77984;SDS011;67177;47.240;-1.546;2023-09-08T08:32:53;4.15;;;1.83;;
77984;SDS011;67177;47.240;-1.546;2023-09-08T08:35:19;4.40;;;2.10;;
77984;SDS011;67177;47.240;-1.546;2023-09-08T08:37:45;4.03;;;1.75;;
77984;SDS011;67177;47.240;-1.546;2023-09-08T08:40:11;3.85;;;1.60;;
77984;SDS011;67177;47.240;-1.546;2023-09-08T08:42:37;3.95;;;1.50;;
77984;SDS011;67177;47.240;-1.546;2023-09-08T08:45:04;3.70;;;1.40;;
77984;SDS011;67177;47.240;-1.546;2023-09-08T08:47:31;3.75;;;1.60;;
77984;SDS011;67177;47.240;-1.546;2023-09-08T08:49:57;3.53;;;1.40;;
77984;SDS011;67177;47.240;-1.546;2023-09-08T08:52:27;3.65;;;1.48;;
77984;SDS011;67177;47.240;-1.546;2023-09-08T08:54:54;4.00;;;1.80;;
77984;SDS011;67177;47.240;-1.546;2023-09-08T08:57:22;3.93;;;1.70;;
77984;SDS011;67177;47.240;-1.546;2023-09-08T08:59:51;3.83;;;1.55;;
77984;SDS011;67177;47.240;-1.546;2023-09-08T09:02:18;3.92;;;1.80;;
77984;SDS011;67177;47.240;-1.546;2023-09-08T09:04:45;4.38;;;1.70;;
77984;SDS011;67177;47.240;-1.546;2023-09-08T09:07:11;4.25;;;1.83;;
77984;SDS011;67177;47.240;-1.546;2023-09-08T09:09:37;4.30;;;1.77;;
77984;SDS011;67177;47.240;-1.546;2023-09-08T09:12:04;4.20;;;1.60;;
77984;SDS011;67177;47.240;-1.546;2023-09-08T09:14:33;4.10;;;1.70;;
77984;SDS011;67177;47.240;-1.546;2023-09-08T09:17:00;3.80;;;1.60;;
77984;SDS011;67177;47.240;-1.546;2023-09-08T09:19:26;4.07;;;1.60;;
77984;SDS011;67177;47.240;-1.546;2023-09-08T09:21:53;3.72;;;1.30;;
77984;SDS011;67177;47.240;-1.546;2023-09-08T09:27:04;3.80;;;1.30;;
77984;SDS011;67177;47.240;-1.546;2023-09-08T09:29:30;3.60;;;1.30;;
77984;SDS011;67177;47.240;-1.546;2023-09-08T09:31:57;2.83;;;1.07;;
77984;SDS011;67177;47.240;-1.546;2023-09-08T09:34:31;3.33;;;1.20;;
77984;SDS011;67177;47.240;-1.546;2023-09-08T09:36:57;3.40;;;1.25;;
77984;SDS011;67177;47.240;-1.546;2023-09-08T09:39:23;3.28;;;1.10;;
77984;SDS011;67177;47.240;-1.546;2023-09-08T09:41:53;3.30;;;1.30;;
77984;SDS011;67177;47.240;-1.546;2023-09-08T09:44:20;3.47;;;1.30;;
77984;SDS011;67177;47.240;-1.546;2023-09-08T09:46:47;3.70;;;1.00;;
77984;SDS011;67177;47.240;-1.546;2023-09-08T09:49:14;3.92;;;1.30;;
77984;SDS011;67177;47.240;-1.546;2023-09-08T09:51:48;3.88;;;1.30;;
77984;SDS011;67177;47.240;-1.546;2023-09-08T09:54:16;3.63;;;1.23;;
77984;SDS011;67177;47.240;-1.546;2023-09-08T09:56:42;3.53;;;1.40;;
77984;SDS011;67177;47.240;-1.546;2023-09-08T09:59:09;3.70;;;1.40;;
77984;SDS011;67177;47.240;-1.546;2023-09-08T10:01:37;3.75;;;1.20;;
77984;SDS011;67177;47.240;-1.546;2023-09-08T10:04:05;3.95;;;1.60;;
77984;SDS011;67177;47.240;-1.546;2023-09-08T10:06:32;3.75;;;1.48;;
77984;SDS011;67177;47.240;-1.546;2023-09-08T10:09:02;4.45;;;1.75;;
77984;SDS011;67177;47.240;-1.546;2023-09-08T10:11:31;4.40;;;1.90;;
77984;SDS011;67177;47.240;-1.546;2023-09-08T10:14:03;4.20;;;1.95;;
77984;SDS011;67177;47.240;-1.546;2023-09-08T10:16:30;4.45;;;2.10;;
77984;SDS011;67177;47.240;-1.546;2023-09-08T10:18:59;4.57;;;2.30;;
77984;SDS011;67177;47.240;-1.546;2023-09-08T10:21:26;5.20;;;2.60;;
77984;SDS011;67177;47.240;-1.546;2023-09-08T10:23:57;5.03;;;2.30;;
77984;SDS011;67177;47.240;-1.546;2023-09-08T10:26:30;5.13;;;2.58;;
77984;SDS011;67177;47.240;-1.546;2023-09-08T10:28:58;4.32;;;1.90;;
77984;SDS011;67177;47.240;-1.546;2023-09-08T10:31:25;4.47;;;1.90;;
77984;SDS011;67177;47.240;-1.546;2023-09-08T10:33:53;4.40;;;1.90;;
77984;SDS011;67177;47.240;-1.546;2023-09-08T10:36:22;4.65;;;2.20;;
77984;SDS011;67177;47.240;-1.546;2023-09-08T10:38:49;4.37;;;1.90;;
77984;SDS011;67177;47.240;-1.546;2023-09-08T10:43:42;6.03;;;2.92;;
77984;SDS011;67177;47.240;-1.546;2023-09-08T10:46:21;5.03;;;2.80;;
77984;SDS011;67177;47.240;-1.546;2023-09-08T10:48:54;5.25;;;2.60;;
77984;SDS011;67177;47.240;-1.546;2023-09-08T10:51:21;4.90;;;2.47;;
77984;SDS011;67177;47.240;-1.546;2023-09-08T10:53:49;4.55;;;1.90;;
77984;SDS011;67177;47.240;-1.546;2023-09-08T10:56:16;4.93;;;2.20;;
77984;SDS011;67177;47.240;-1.546;2023-09-08T10:58:43;4.50;;;2.00;;
77984;SDS011;67177;47.240;-1.546;2023-09-08T11:01:15;4.55;;;2.20;;
77984;SDS011;67177;47.240;-1.546;2023-09-08T11:03:43;4.72;;;1.98;;
77984;SDS011;67177;47.240;-1.546;2023-09-08T11:06:11;4.67;;;2.17;;
77984;SDS011;67177;47.240;-1.546;2023-09-08T11:08:38;4.30;;;1.98;;
77984;SDS011;67177;47.240;-1.546;2023-09-08T11:11:06;4.93;;;1.90;;
77984;SDS011;67177;47.240;-1.546;2023-09-08T11:13:32;4.40;;;2.00;;
77984;SDS011;67177;47.240;-1.546;2023-09-08T11:15:58;4.53;;;1.97;;
77984;SDS011;67177;47.240;-1.546;2023-09-08T11:18:27;4.43;;;2.00;;
77984;SDS011;67177;47.240;-1.546;2023-09-08T11:20:56;4.80;;;2.13;;
77984;SDS011;67177;47.240;-1.546;2023-09-08T11:23:23;5.18;;;2.50;;
77984;SDS011;67177;47.240;-1.546;2023-09-08T11:25:50;6.53;;;2.70;;
77984;SDS011;67177;47.240;-1.546;2023-09-08T11:28:16;6.63;;;3.30;;
77984;SDS011;67177;47.240;-1.546;2023-09-08T11:30:42;6.35;;;3.10;;
77984;SDS011;67177;47.240;-1.546;2023-09-08T11:33:14;5.97;;;2.93;;
77984;SDS011;67177;47.240;-1.546;2023-09-08T11:35:47;6.90;;;3.00;;
77984;SDS011;67177;47.240;-1.546;2023-09-08T11:38:13;5.57;;;3.00;;
77984;SDS011;67177;47.240;-1.546;2023-09-08T11:40:39;6.75;;;3.30;;
77984;SDS011;67177;47.240;-1.546;2023-09-08T11:43:06;6.53;;;3.10;;
77984;SDS011;67177;47.240;-1.546;2023-09-08T11:45:35;6.13;;;3.30;;
77984;SDS011;67177;47.240;-1.546;2023-09-08T11:48:01;5.82;;;3.20;;
77984;SDS011;67177;47.240;-1.546;2023-09-08T11:50:29;5.93;;;3.30;;
77984;SDS011;67177;47.240;-1.546;2023-09-08T11:52:55;6.05;;;3.03;;
77984;SDS011;67177;47.240;-1.546;2023-09-08T11:55:24;5.10;;;2.80;;
77984;SDS011;67177;47.240;-1.546;2023-09-08T11:57:51;6.40;;;2.83;;
77984;SDS011;67177;47.240;-1.546;2023-09-08T12:00:22;5.70;;;2.65;;
77984;SDS011;67177;47.240;-1.546;2023-09-08T12:02:49;5.45;;;3.10;;
77984;SDS011;67177;47.240;-1.546;2023-09-08T12:05:25;5.18;;;2.70;;
77984;SDS011;67177;47.240;-1.546;2023-09-08T12:07:52;5.50;;;2.78;;
77984;SDS011;67177;47.240;-1.546;2023-09-08T12:10:21;4.72;;;2.40;;
77984;SDS011;67177;47.240;-1.546;2023-09-08T12:12:48;5.15;;;2.50;;
77984;SDS011;67177;47.240;-1.546;2023-09-08T12:15:35;5.50;;;2.90;;
77984;SDS011;67177;47.240;-1.546;2023-09-08T12:18:02;5.47;;;2.80;;
77984;SDS011;67177;47.240;-1.546;2023-09-08T12:20:30;5.40;;;2.67;;
77984;SDS011;67177;47.240;-1.546;2023-09-08T12:22:58;5.15;;;2.80;;
77984;SDS011;67177;47.240;-1.546;2023-09-08T12:25:26;6.25;;;2.90;;
77984;SDS011;67177;47.240;-1.546;2023-09-08T12:27:53;5.13;;;2.50;;
77984;SDS011;67177;47.240;-1.546;2023-09-08T12:30:20;4.43;;;2.20;;
77984;SDS011;67177;47.240;-1.546;2023-09-08T12:32:47;4.72;;;2.40;;
77984;SDS011;67177;47.240;-1.546;2023-09-08T12:35:19;5.00;;;2.10;;
77984;SDS011;67177;47.240;-1.546;2023-09-08T12:38:07;4.90;;;2.28;;
77984;SDS011;67177;47.240;-1.546;2023-09-08T12:40:37;4.95;;;2.13;;
77984;SDS011;67177;47.240;-1.546;2023-09-08T12:43:03;5.22;;;2.60;;
77984;SDS011;67177;47.240;-1.546;2023-09-08T12:45:29;5.45;;;2.60;;
77984;SDS011;67177;47.240;-1.546;2023-09-08T12:47:57;6.05;;;2.60;;
77984;SDS011;67177;47.240;-1.546;2023-09-08T12:50:25;5.55;;;2.60;;
77984;SDS011;67177;47.240;-1.546;2023-09-08T12:52:51;5.65;;;2.40;;
77984;SDS011;67177;47.240;-1.546;2023-09-08T12:55:16;5.33;;;2.43;;
77984;SDS011;67177;47.240;-1.546;2023-09-08T12:57:42;4.65;;;2.20;;
77984;SDS011;67177;47.240;-1.546;2023-09-08T13:00:08;4.30;;;1.90;;
77984;SDS011;67177;47.240;-1.546;2023-09-08T13:02:34;4.88;;;2.10;;
77984;SDS011;67177;47.240;-1.546;2023-09-08T13:05:00;4.60;;;2.08;;
77984;SDS011;67177;47.240;-1.546;2023-09-08T13:07:27;5.00;;;2.22;;
77984;SDS011;67177;47.240;-1.546;2023-09-08T13:09:53;5.47;;;2.60;;
77984;SDS011;67177;47.240;-1.546;2023-09-08T13:12:19;4.57;;;2.25;;
77984;SDS011;67177;47.240;-1.546;2023-09-08T13:14:45;5.15;;;2.15;;
77984;SDS011;67177;47.240;-1.546;2023-09-08T13:17:10;4.90;;;2.33;;
77984;SDS011;67177;47.240;-1.546;2023-09-08T13:19:36;5.03;;;2.40;;
77984;SDS011;67177;47.240;-1.546;2023-09-08T13:22:05;5.18;;;2.47;;
77984;SDS011;67177;47.240;-1.546;2023-09-08T13:24:31;7.33;;;2.63;;
77984;SDS011;67177;47.240;-1.546;2023-09-08T13:26:57;5.47;;;2.58;;
77984;SDS011;67177;47.240;-1.546;2023-09-08T13:29:22;6.80;;;2.95;;
77984;SDS011;67177;47.240;-1.546;2023-09-08T13:31:48;6.67;;;3.10;;
77984;SDS011;67177;47.240;-1.546;2023-09-08T13:34:14;6.85;;;3.47;;
77984;SDS011;67177;47.240;-1.546;2023-09-08T13:36:39;7.40;;;3.00;;
77984;SDS011;67177;47.240;-1.546;2023-09-08T13:39:05;5.87;;;2.87;;
77984;SDS011;67177;47.240;-1.546;2023-09-08T13:41:52;6.13;;;3.08;;
77984;SDS011;67177;47.240;-1.546;2023-09-08T13:44:19;5.63;;;2.72;;
77984;SDS011;67177;47.240;-1.546;2023-09-08T13:46:47;6.43;;;2.50;;
77984;SDS011;67177;47.240;-1.546;2023-09-08T13:49:13;4.68;;;2.33;;
77984;SDS011;67177;47.240;-1.546;2023-09-08T13:51:40;5.65;;;2.35;;
77984;SDS011;67177;47.240;-1.546;2023-09-08T13:54:06;5.03;;;2.28;;
77984;SDS011;67177;47.240;-1.546;2023-09-08T13:56:32;5.68;;;2.60;;
77984;SDS011;67177;47.240;-1.546;2023-09-08T13:58:58;5.47;;;2.50;;
77984;SDS011;67177;47.240;-1.546;2023-09-08T14:01:24;4.90;;;2.67;;
77984;SDS011;67177;47.240;-1.546;2023-09-08T14:03:52;7.70;;;4.07;;
77984;SDS011;67177;47.240;-1.546;2023-09-08T14:06:18;7.85;;;3.90;;
77984;SDS011;67177;47.240;-1.546;2023-09-08T14:08:44;6.55;;;3.17;;
77984;SDS011;67177;47.240;-1.546;2023-09-08T14:11:10;5.33;;;2.80;;
77984;SDS011;67177;47.240;-1.546;2023-09-08T14:13:37;5.15;;;2.45;;
77984;SDS011;67177;47.240;-1.546;2023-09-08T14:16:03;4.55;;;2.10;;
77984;SDS011;67177;47.240;-1.546;2023-09-08T14:18:29;5.33;;;2.30;;
77984;SDS011;67177;47.240;-1.546;2023-09-08T14:20:55;4.72;;;2.20;;
77984;SDS011;67177;47.240;-1.546;2023-09-08T14:23:20;4.70;;;2.13;;
77984;SDS011;67177;47.240;-1.546;2023-09-08T14:25:46;5.82;;;2.40;;
77984;SDS011;67177;47.240;-1.546;2023-09-08T14:28:12;4.90;;;2.20;;
77984;SDS011;67177;47.240;-1.546;2023-09-08T14:30:37;4.95;;;2.10;;
77984;SDS011;67177;47.240;-1.546;2023-09-08T14:33:05;4.43;;;2.10;;
77984;SDS011;67177;47.240;-1.546;2023-09-08T14:35:31;4.37;;;1.90;;